createdAt,value
2023-04-22T00:00:49.065Z,1.04
2023-04-22T00:01:49.177Z,1.04
2023-04-22T00:02:49.428Z,1.04
2023-04-22T00:03:49.751Z,1.04
2023-04-22T00:04:49.760Z,1.04
2023-04-22T00:05:49.814Z,1.04
2023-04-22T00:06:49.884Z,1.04
2023-04-22T00:07:50.038Z,1.04
2023-04-22T00:08:50.217Z,1.04
2023-04-22T00:09:50.337Z,1.04
2023-04-22T00:10:50.469Z,1.04
2023-04-22T00:11:50.643Z,1.04
2023-04-22T00:12:50.789Z,1.04
2023-04-22T00:13:50.965Z,1.04
2023-04-22T00:14:51.057Z,1.04
2023-04-22T00:15:51.262Z,1.04
2023-04-22T00:16:51.305Z,1.04
2023-04-22T00:17:51.486Z,1.04
2023-04-22T00:18:51.607Z,1.04
2023-04-22T00:19:51.764Z,1.04
2023-04-22T00:20:51.876Z,1.04
2023-04-22T00:21:51.945Z,1.04
2023-04-22T00:22:52.119Z,1.04
2023-04-22T00:23:52.259Z,1.04
2023-04-22T00:24:52.406Z,1.04
2023-04-22T00:25:52.498Z,1.04
2023-04-22T00:26:52.615Z,1.04
2023-04-22T00:27:52.781Z,1.04
2023-04-22T00:28:52.961Z,1.04
2023-04-22T00:29:53.069Z,1.04
2023-04-22T00:30:53.237Z,1.04
2023-04-22T00:31:53.342Z,1.04
2023-04-22T00:32:53.482Z,1.04
2023-04-22T00:33:53.623Z,1.04
2023-04-22T00:34:53.770Z,1.04
2023-04-22T00:35:53.872Z,1.04
2023-04-22T00:36:54.019Z,1.04
2023-04-22T00:37:54.191Z,1.04
2023-04-22T00:38:54.337Z,1.04
2023-04-22T00:39:54.475Z,1.04
2023-04-22T00:40:54.519Z,1.04
2023-04-22T00:41:54.684Z,1.04
2023-04-22T00:42:54.849Z,1.04
2023-04-22T00:43:55.040Z,1.04
2023-04-22T00:44:55.125Z,1.04
2023-04-22T00:45:55.239Z,1.04
2023-04-22T00:46:55.462Z,1.04
2023-04-22T00:47:55.616Z,1.04
2023-04-22T00:48:55.717Z,1.04
2023-04-22T00:49:55.839Z,1.04
2023-04-22T00:50:56.000Z,1.04
2023-04-22T00:51:56.142Z,1.04
2023-04-22T00:52:56.301Z,1.04
2023-04-22T00:53:56.452Z,1.04
2023-04-22T00:54:56.599Z,1.04
2023-04-22T00:55:56.705Z,1.04
2023-04-22T00:56:56.863Z,1.04
2023-04-22T00:57:57.008Z,1.04
2023-04-22T00:58:57.150Z,1.04
2023-04-22T00:59:57.306Z,1.04
2023-04-22T01:00:57.481Z,1.04
2023-04-22T01:01:57.688Z,1.04
2023-04-22T01:02:57.979Z,1.04
2023-04-22T01:03:57.979Z,1.04
2023-04-22T01:04:58.030Z,1.04
2023-04-22T01:05:58.166Z,1.04
2023-04-22T01:06:58.339Z,1.04
2023-04-22T01:07:58.487Z,1.04
2023-04-22T01:08:58.620Z,1.04
2023-04-22T01:09:58.789Z,1.04
2023-04-22T01:10:58.936Z,1.04
2023-04-22T01:11:59.082Z,1.04
2023-04-22T01:12:59.246Z,1.04
2023-04-22T01:13:59.402Z,1.04
2023-04-22T01:15:00.356Z,1.04
2023-04-22T01:15:59.683Z,1.04
2023-04-22T01:16:59.900Z,1.04
2023-04-22T01:17:59.977Z,1.04
2023-04-22T01:19:00.051Z,1.04
2023-04-22T01:20:00.190Z,1.04
2023-04-22T01:21:00.357Z,1.04
2023-04-22T01:22:00.508Z,1.04
2023-04-22T01:23:00.653Z,1.04
2023-04-22T01:24:00.802Z,1.04
2023-04-22T01:25:00.954Z,1.04
2023-04-22T01:26:01.082Z,1.04
2023-04-22T01:27:01.229Z,1.04
2023-04-22T01:28:01.360Z,1.04
2023-04-22T01:29:01.505Z,1.04
2023-04-22T01:30:01.665Z,1.04
2023-04-22T01:31:01.815Z,1.04
2023-04-22T01:32:01.967Z,1.04
2023-04-22T01:33:02.300Z,1.04
2023-04-22T01:34:02.231Z,1.04
2023-04-22T01:35:02.370Z,1.04
2023-04-22T01:36:02.529Z,1.04
2023-04-22T01:37:02.681Z,1.04
2023-04-22T01:38:02.826Z,1.04
2023-04-22T01:39:02.986Z,1.04
2023-04-22T01:40:03.124Z,1.04
2023-04-22T01:41:03.279Z,1.04
2023-04-22T01:42:03.470Z,1.04
2023-04-22T01:43:03.574Z,1.04
2023-04-22T01:44:03.746Z,1.04
2023-04-22T01:45:03.887Z,1.04
2023-04-22T01:46:04.015Z,1.04
2023-04-22T01:47:04.134Z,1.04
2023-04-22T01:48:04.267Z,1.04
2023-04-22T01:49:04.362Z,1.04
2023-04-22T01:50:04.511Z,1.04
2023-04-22T01:51:04.627Z,1.04
2023-04-22T01:52:04.779Z,1.04
2023-04-22T01:53:04.960Z,1.04
2023-04-22T01:54:05.100Z,1.04
2023-04-22T01:55:05.213Z,1.04
2023-04-22T01:56:05.371Z,1.04
2023-04-22T01:57:05.528Z,1.04
2023-04-22T01:58:05.663Z,1.04
2023-04-22T01:59:05.806Z,1.04
2023-04-22T02:00:05.918Z,1.04
2023-04-22T02:01:06.092Z,1.04
2023-04-22T02:02:06.207Z,1.04
2023-04-22T02:03:06.411Z,1.04
2023-04-22T02:04:06.429Z,1.04
2023-04-22T02:05:06.647Z,1.04
2023-04-22T02:06:06.679Z,1.04
2023-04-22T02:07:06.778Z,1.04
2023-04-22T02:08:06.925Z,1.04
2023-04-22T02:09:07.081Z,1.04
2023-04-22T02:10:07.306Z,1.04
2023-04-22T02:11:07.377Z,1.04
2023-04-22T02:12:07.549Z,1.04
2023-04-22T02:13:07.671Z,1.04
2023-04-22T02:14:07.838Z,1.04
2023-04-22T02:15:07.975Z,1.04
2023-04-22T02:16:08.195Z,1.04
2023-04-22T02:17:08.307Z,1.04
2023-04-22T02:18:08.459Z,1.04
2023-04-22T02:19:08.618Z,1.04
2023-04-22T02:20:08.782Z,1.04
2023-04-22T02:21:08.846Z,1.04
2023-04-22T02:22:08.986Z,1.04
2023-04-22T02:23:09.138Z,1.04
2023-04-22T02:24:09.306Z,1.04
2023-04-22T02:25:09.342Z,1.04
2023-04-22T02:26:09.495Z,1.04
2023-04-22T02:27:09.653Z,1.04
2023-04-22T02:28:09.806Z,1.04
2023-04-22T02:29:09.966Z,1.04
2023-04-22T02:30:10.112Z,1.04
2023-04-22T02:31:10.258Z,1.04
2023-04-22T02:32:10.322Z,1.04
2023-04-22T02:33:10.470Z,1.04
2023-04-22T02:34:10.611Z,1.04
2023-04-22T02:35:10.769Z,1.04
2023-04-22T02:36:10.921Z,1.04
2023-04-22T02:37:11.044Z,1.04
2023-04-22T02:38:11.221Z,1.04
2023-04-22T02:39:11.281Z,1.04
2023-04-22T02:40:11.425Z,1.04
2023-04-22T02:41:11.572Z,1.04
2023-04-22T02:42:12.020Z,1.04
2023-04-22T02:43:11.836Z,1.04
2023-04-22T02:44:11.930Z,1.04
2023-04-22T02:45:12.085Z,1.04
2023-04-22T02:46:12.268Z,1.04
2023-04-22T02:47:12.341Z,1.04
2023-04-22T02:48:12.509Z,1.04
2023-04-22T02:49:12.588Z,1.04
2023-04-22T02:50:12.692Z,1.04
2023-04-22T02:51:12.845Z,1.04
2023-04-22T02:52:12.944Z,1.04
2023-04-22T02:53:13.107Z,1.04
2023-04-22T02:54:13.259Z,1.04
2023-04-22T02:55:13.412Z,1.04
2023-04-22T02:56:13.545Z,1.04
2023-04-22T02:57:13.677Z,1.04
2023-04-22T02:58:13.823Z,1.04
2023-04-22T02:59:13.936Z,1.04
2023-04-22T03:00:14.106Z,1.04
2023-04-22T03:01:14.306Z,1.04
2023-04-22T03:02:14.425Z,1.04
2023-04-22T03:03:14.618Z,1.04
2023-04-22T03:04:14.774Z,1.04
2023-04-22T03:05:14.825Z,1.04
2023-04-22T03:06:14.960Z,1.04
2023-04-22T03:07:15.112Z,1.04
2023-04-22T03:08:15.209Z,1.04
2023-04-22T03:09:15.364Z,1.04
2023-04-22T03:10:15.499Z,1.04
2023-04-22T03:11:15.688Z,1.04
2023-04-22T03:12:15.811Z,1.04
2023-04-22T03:13:15.976Z,1.04
2023-04-22T03:14:16.120Z,1.04
2023-04-22T03:15:18.136Z,1.04
2023-04-22T03:16:16.517Z,1.04
2023-04-22T03:17:16.522Z,1.04
2023-04-22T03:18:16.684Z,1.04
2023-04-22T03:19:16.824Z,1.04
2023-04-22T03:20:16.982Z,2
2023-04-22T03:21:17.085Z,2
2023-04-22T03:22:17.256Z,2
2023-04-22T03:23:17.402Z,2
2023-04-22T03:24:17.543Z,3.04
2023-04-22T03:25:17.700Z,3.04
2023-04-22T03:26:17.861Z,3.04
2023-04-22T03:27:17.989Z,4
2023-04-22T03:28:18.145Z,4
2023-04-22T03:29:18.309Z,5.04
2023-04-22T03:30:18.458Z,6
2023-04-22T03:31:18.578Z,6
2023-04-22T03:32:18.816Z,7.04
2023-04-22T03:33:18.873Z,8
2023-04-22T03:34:19.022Z,10
2023-04-22T03:35:19.178Z,11.04
2023-04-22T03:36:19.264Z,13.04
2023-04-22T03:37:19.410Z,15.04
2023-04-22T03:38:19.595Z,18
2023-04-22T03:39:19.717Z,21.04
2023-04-22T03:40:19.896Z,24
2023-04-22T03:41:20.014Z,29.04
2023-04-22T03:42:20.162Z,34
2023-04-22T03:43:20.291Z,40
2023-04-22T03:44:20.436Z,46
2023-04-22T03:45:20.610Z,53.04
2023-04-22T03:46:20.783Z,63.04
2023-04-22T03:47:20.890Z,72
2023-04-22T03:48:20.983Z,83.04
2023-04-22T03:49:21.124Z,94
2023-04-22T03:50:21.282Z,109.04
2023-04-22T03:51:21.436Z,126
2023-04-22T03:52:21.590Z,142
2023-04-22T03:53:21.679Z,159.04
2023-04-22T03:54:21.826Z,184
2023-04-22T03:55:21.996Z,205.12
2023-04-22T03:56:22.101Z,227.04
2023-04-22T03:57:22.237Z,256
2023-04-22T03:58:22.402Z,281.12
2023-04-22T03:59:22.565Z,310.08
2023-04-22T04:00:22.771Z,347.2
2023-04-22T04:01:22.854Z,379.2
2023-04-22T04:02:23.154Z,413.12
2023-04-22T04:03:23.337Z,447.04
2023-04-22T04:04:23.485Z,493.12
2023-04-22T04:05:23.617Z,532.16
2023-04-22T04:06:23.570Z,573.12
2023-04-22T04:07:23.714Z,616
2023-04-22T04:08:23.858Z,672
2023-04-22T04:09:24.021Z,717.44
2023-04-22T04:10:24.200Z,767.36
2023-04-22T04:11:24.329Z,818.56
2023-04-22T04:12:24.463Z,881.28
2023-04-22T04:13:24.616Z,930.56
2023-04-22T04:14:24.720Z,979.2
2023-04-22T04:15:24.892Z,1032.32
2023-04-22T04:16:25.067Z,1096.32
2023-04-22T04:17:25.200Z,1148.16
2023-04-22T04:18:25.281Z,1209.6
2023-04-22T04:19:25.451Z,1256.32
2023-04-22T04:20:25.584Z,1291.52
2023-04-22T04:21:25.735Z,1428.48
2023-04-22T04:22:25.893Z,1500.16
2023-04-22T04:23:26.062Z,1556.48
2023-04-22T04:24:26.798Z,1610.24
2023-04-22T04:25:26.380Z,1681.92
2023-04-22T04:26:26.515Z,1733.12
2023-04-22T04:27:26.692Z,1790.72
2023-04-22T04:28:26.858Z,1863.68
2023-04-22T04:29:27.017Z,1930.24
2023-04-22T04:30:27.101Z,2009.6
2023-04-22T04:31:27.293Z,2100.48
2023-04-22T04:32:27.558Z,2178.56
2023-04-22T04:33:27.546Z,2292.48
2023-04-22T04:34:27.706Z,2456.32
2023-04-22T04:35:27.853Z,2556.16
2023-04-22T04:36:27.967Z,2659.84
2023-04-22T04:37:28.104Z,2749.44
2023-04-22T04:38:28.255Z,2844.16
2023-04-22T04:39:28.409Z,2954.24
2023-04-22T04:40:28.573Z,3054.08
2023-04-22T04:41:28.719Z,3141.12
2023-04-22T04:42:28.867Z,3261.44
2023-04-22T04:43:29.014Z,3358.72
2023-04-22T04:44:29.172Z,3489.28
2023-04-22T04:45:29.317Z,3591.68
2023-04-22T04:46:29.512Z,3699.2
2023-04-22T04:47:29.558Z,3819.52
2023-04-22T04:48:29.681Z,3916.8
2023-04-22T04:49:29.796Z,4026.88
2023-04-22T04:50:29.917Z,4167.68
2023-04-22T04:51:30.074Z,4275.2
2023-04-22T04:52:30.225Z,4390.4
2023-04-22T04:53:30.378Z,4541.44
2023-04-22T04:54:30.535Z,4648.96
2023-04-22T04:55:30.686Z,4784.64
2023-04-22T04:56:30.832Z,4894.72
2023-04-22T04:57:30.972Z,5015.04
2023-04-22T04:58:31.128Z,5166.08
2023-04-22T04:59:31.237Z,5309.44
2023-04-22T05:00:31.388Z,5432.32
2023-04-22T05:01:31.527Z,5606.4
2023-04-22T05:02:31.779Z,5724.16
2023-04-22T05:03:31.942Z,5862.4
2023-04-22T05:04:32.048Z,5995.52
2023-04-22T05:05:32.004Z,6118.4
2023-04-22T05:06:32.151Z,6292.48
2023-04-22T05:07:32.314Z,6430.72
2023-04-22T05:08:32.462Z,6599.68
2023-04-22T05:09:32.617Z,6737.92
2023-04-22T05:10:32.756Z,6886.4
2023-04-22T05:11:32.891Z,7060.48
2023-04-22T05:12:33.025Z,7203.84
2023-04-22T05:13:33.180Z,7352.32
2023-04-22T05:14:33.274Z,7557.12
2023-04-22T05:15:33.418Z,7715.84
2023-04-22T05:16:33.549Z,7889.92
2023-04-22T05:17:33.683Z,8110.08
2023-04-22T05:18:33.829Z,8273.92
2023-04-22T05:19:33.971Z,8422.399
2023-04-22T05:20:36.093Z,8601.6
2023-04-22T05:21:34.265Z,8755.2
2023-04-22T05:22:34.439Z,8965.12
2023-04-22T05:23:34.599Z,9128.96
2023-04-22T05:24:34.763Z,9303.04
2023-04-22T05:25:34.872Z,9533.439
2023-04-22T05:26:35.041Z,9728
2023-04-22T05:27:35.193Z,9902.08
2023-04-22T05:28:35.383Z,10106.88
2023-04-22T05:29:35.516Z,10316.8
2023-04-22T05:30:35.662Z,10526.72
2023-04-22T05:31:35.846Z,10752
2023-04-22T05:32:35.995Z,10956.8
2023-04-22T05:33:36.105Z,11141.12
2023-04-22T05:34:36.264Z,11386.88
2023-04-22T05:35:36.409Z,11591.68
2023-04-22T05:36:36.554Z,11816.96
2023-04-22T05:37:36.661Z,12052.479
2023-04-22T05:38:36.821Z,12277.76
2023-04-22T05:39:37.059Z,12482.56
2023-04-22T05:40:37.110Z,12687.359
2023-04-22T05:41:37.257Z,12810.239
2023-04-22T05:42:37.383Z,12953.6
2023-04-22T05:43:37.523Z,14284.8
2023-04-22T05:44:37.669Z,14530.56
2023-04-22T05:45:37.827Z,14868.479
2023-04-22T05:46:38.108Z,15165.439
2023-04-22T05:47:38.100Z,15472.64
2023-04-22T05:48:38.215Z,15882.239
2023-04-22T05:49:38.604Z,16179.199
2023-04-22T05:50:38.564Z,16506.88
2023-04-22T05:51:38.678Z,16936.96
2023-04-22T05:52:38.805Z,17305.6
2023-04-22T05:53:38.960Z,17664
2023-04-22T05:54:39.081Z,18032.64
2023-04-22T05:55:39.233Z,18380.8
2023-04-22T05:56:39.388Z,18851.84
2023-04-22T05:57:39.544Z,19210.24
2023-04-22T05:58:39.713Z,19568.64
2023-04-22T05:59:40.048Z,19988.48
2023-04-22T06:00:39.939Z,20367.36
2023-04-22T06:01:40.112Z,20787.2
2023-04-22T06:02:40.359Z,21135.36
2023-04-22T06:03:40.808Z,21463.04
2023-04-22T06:04:40.716Z,21913.6
2023-04-22T06:05:40.695Z,22241.28
2023-04-22T06:06:40.802Z,22630.4
2023-04-22T06:07:40.978Z,23019.52
2023-04-22T06:08:41.105Z,23449.6
2023-04-22T06:09:41.588Z,23838.72
2023-04-22T06:10:41.362Z,24207.36
2023-04-22T06:11:41.506Z,24514.56
2023-04-22T06:12:42.003Z,24985.6
2023-04-22T06:13:41.817Z,25333.76
2023-04-22T06:14:41.922Z,25825.28
2023-04-22T06:15:42.024Z,26214.4
2023-04-22T06:16:42.163Z,26685.44
2023-04-22T06:17:42.439Z,27176.96
2023-04-22T06:18:42.471Z,27709.44
2023-04-22T06:19:42.615Z,28344.32
2023-04-22T06:20:42.769Z,28733.44
2023-04-22T06:21:42.920Z,29184
2023-04-22T06:22:43.085Z,29634.56
2023-04-22T06:23:43.231Z,30105.6
2023-04-22T06:24:43.384Z,30535.68
2023-04-22T06:25:43.557Z,31129.6
2023-04-22T06:26:43.671Z,31539.2
2023-04-22T06:27:43.830Z,32235.52
2023-04-22T06:28:43.931Z,32829.44
2023-04-22T06:29:44.112Z,33423.36
2023-04-22T06:30:44.244Z,34058.24
2023-04-22T06:31:44.397Z,34754.56
2023-04-22T06:32:44.483Z,35287.04
2023-04-22T06:33:44.623Z,35921.92
2023-04-22T06:34:44.736Z,36577.28
2023-04-22T06:35:44.870Z,37027.84
2023-04-22T06:36:45.067Z,37662.72
2023-04-22T06:37:45.194Z,38195.2
2023-04-22T06:38:45.375Z,38707.2
2023-04-22T06:39:45.494Z,39301.12
2023-04-22T06:40:45.614Z,39792.64
2023-04-22T06:41:45.770Z,40386.56
2023-04-22T06:42:45.941Z,41082.88
2023-04-22T06:43:46.067Z,41512.96
2023-04-22T06:44:46.206Z,42311.68
2023-04-22T06:45:46.317Z,42803.2
2023-04-22T06:46:46.488Z,43417.6
2023-04-22T06:47:46.619Z,44113.92
2023-04-22T06:48:46.654Z,44605.44
2023-04-22T06:49:46.799Z,45219.84
2023-04-22T06:50:46.994Z,46080
2023-04-22T06:51:47.113Z,46489.6
2023-04-22T06:52:47.276Z,47267.84
2023-04-22T06:53:47.437Z,47841.28
2023-04-22T06:54:47.598Z,48455.68
2023-04-22T06:55:47.722Z,49274.88
2023-04-22T06:56:47.903Z,49766.4
2023-04-22T06:57:48.041Z,50585.6
2023-04-22T06:58:48.188Z,51077.12
2023-04-22T06:59:48.281Z,51732.48
2023-04-22T07:00:48.419Z,52510.72
2023-04-22T07:01:48.575Z,52019.2
2023-04-22T07:02:48.677Z,53166.08
2023-04-22T07:03:48.858Z,53616.64
2023-04-22T07:04:48.953Z,54231.04
2023-04-22T07:05:49.034Z,53534.72
2023-04-22T07:06:49.203Z,52264.96
2023-04-22T07:07:49.293Z,53288.96
2023-04-22T07:08:49.438Z,55377.92
2023-04-22T07:09:49.546Z,54190.08
2023-04-22T07:10:49.708Z,55173.12
2023-04-22T07:11:49.859Z,56115.2
2023-04-22T07:12:49.993Z,57262.08
2023-04-22T07:13:50.159Z,56442.88
2023-04-22T07:14:50.293Z,55705.6
2023-04-22T07:15:50.421Z,56565.76
2023-04-22T07:16:50.597Z,59310.08
2023-04-22T07:17:50.690Z,59228.16
2023-04-22T07:18:50.820Z,62464
2023-04-22T07:19:50.961Z,64471.04
2023-04-22T07:20:51.068Z,61480.96
2023-04-22T07:21:51.233Z,61399.04
2023-04-22T07:22:51.362Z,61358.08
2023-04-22T07:23:51.506Z,63201.28
2023-04-22T07:24:51.595Z,65740.8
2023-04-22T07:25:51.768Z,67051.52
2023-04-22T07:26:51.917Z,64880.64
2023-04-22T07:27:52.084Z,63283.2
2023-04-22T07:28:52.177Z,63897.6
2023-04-22T07:29:52.343Z,62300.16
2023-04-22T07:30:52.483Z,61644.8
2023-04-22T07:31:52.915Z,63692.8
2023-04-22T07:33:52.929Z,65986.56
2023-04-22T07:34:53.089Z,65044.48
2023-04-22T07:35:53.244Z,64593.92
2023-04-22T07:36:53.386Z,66682.88
2023-04-22T07:37:53.529Z,66273.28
2023-04-22T07:38:53.690Z,68157.44
2023-04-22T07:39:53.855Z,70410.24
2023-04-22T07:40:54.000Z,70656
2023-04-22T07:41:54.144Z,72417.28
2023-04-22T07:42:54.305Z,73236.48
2023-04-22T07:43:54.450Z,74956.8
2023-04-22T07:44:54.612Z,75366.4
2023-04-22T07:45:54.800Z,75816.96
2023-04-22T07:46:54.859Z,76759.04
2023-04-22T07:47:55.016Z,77455.36
2023-04-22T07:48:55.138Z,78356.48
2023-04-22T07:49:55.253Z,78970.88
2023-04-22T07:50:55.402Z,78110.72
2023-04-22T07:51:55.578Z,79749.12
2023-04-22T07:52:55.706Z,78807.04
2023-04-22T07:53:55.829Z,77987.84
2023-04-22T07:54:55.972Z,79667.2
2023-04-22T07:55:56.080Z,81756.16
2023-04-22T07:56:56.231Z,77987.84
2023-04-22T07:57:56.371Z,73728
2023-04-22T07:58:56.525Z,75325.44
2023-04-22T07:59:56.671Z,78315.52
2023-04-22T08:00:56.858Z,76431.36
2023-04-22T08:01:57.038Z,78151.68
2023-04-22T08:02:57.323Z,81018.88
2023-04-22T08:03:57.620Z,83845.12
2023-04-22T08:04:57.460Z,77455.36
2023-04-22T08:05:57.588Z,85278.72
2023-04-22T08:06:58.132Z,86343.68
2023-04-22T08:08:58.751Z,88637.44
2023-04-22T08:09:58.046Z,90193.92
2023-04-22T08:10:58.208Z,91832.32
2023-04-22T08:11:58.363Z,90849.28
2023-04-22T08:12:58.450Z,90275.84
2023-04-22T08:13:58.616Z,89292.8
2023-04-22T08:14:58.704Z,90603.52
2023-04-22T08:15:58.862Z,93224.96
2023-04-22T08:16:58.908Z,92733.44
2023-04-22T08:17:59.081Z,92897.28
2023-04-22T08:18:59.202Z,91750.4
2023-04-22T08:19:59.380Z,91422.72
2023-04-22T08:20:59.519Z,91013.12
2023-04-22T08:21:59.657Z,93552.64
2023-04-22T08:22:59.809Z,84213.76
2023-04-22T08:23:59.962Z,88473.6
2023-04-22T08:25:00.157Z,89784.32
2023-04-22T08:26:00.277Z,92733.44
2023-04-22T08:27:00.423Z,94289.91
2023-04-22T08:28:00.550Z,93880.32
2023-04-22T08:29:00.670Z,90193.92
2023-04-22T08:30:00.803Z,92651.52
2023-04-22T08:31:01.017Z,78192.64
2023-04-22T08:32:01.037Z,81223.68
2023-04-22T08:33:01.221Z,73973.76
2023-04-22T08:34:01.299Z,74874.88
2023-04-22T08:35:04.607Z,86999.04
2023-04-22T08:36:01.601Z,88064
2023-04-22T08:37:01.753Z,92651.52
2023-04-22T08:38:01.875Z,93306.88
2023-04-22T08:39:01.999Z,85196.8
2023-04-22T08:40:02.165Z,84459.52
2023-04-22T08:41:02.250Z,83599.36
2023-04-22T08:42:02.386Z,84541.44
2023-04-22T08:43:02.516Z,85852.16
2023-04-22T08:44:02.650Z,83845.12
2023-04-22T08:45:02.738Z,83640.32
2023-04-22T08:46:02.932Z,87080.96
2023-04-22T08:47:03.176Z,85934.08
2023-04-22T08:48:03.184Z,86999.04
2023-04-22T08:49:03.317Z,85442.55
2023-04-22T08:50:03.415Z,87490.55
2023-04-22T08:51:03.552Z,86097.92
2023-04-22T08:52:03.717Z,86097.92
2023-04-22T08:53:03.857Z,86343.68
2023-04-22T08:54:03.974Z,89210.88
2023-04-22T08:55:04.128Z,91340.8
2023-04-22T08:56:04.268Z,87326.72
2023-04-22T08:57:04.431Z,83845.12
2023-04-22T08:58:04.589Z,82411.52
2023-04-22T08:59:04.720Z,87326.72
2023-04-22T09:00:04.868Z,82780.16
2023-04-22T09:01:05.038Z,82452.48
2023-04-22T09:02:05.248Z,79994.88
2023-04-22T09:03:05.398Z,81633.28
2023-04-22T09:04:05.522Z,83558.4
2023-04-22T09:05:05.631Z,83066.88
2023-04-22T09:06:05.762Z,83640.32
2023-04-22T09:07:05.898Z,84459.52
2023-04-22T09:08:06.037Z,86261.76
2023-04-22T09:09:06.189Z,86425.6
2023-04-22T09:10:06.375Z,85442.55
2023-04-22T09:11:06.496Z,85606.4
2023-04-22T09:12:06.613Z,84951.04
2023-04-22T09:13:06.763Z,84213.76
2023-04-22T09:14:06.896Z,79585.28
2023-04-22T09:15:07.053Z,78602.24
2023-04-22T09:16:07.230Z,80568.32
2023-04-22T09:17:07.358Z,81756.16
2023-04-22T09:18:07.458Z,82083.84
2023-04-22T09:19:07.601Z,83968
2023-04-22T09:20:07.869Z,82288.64
2023-04-22T09:21:07.910Z,83353.6
2023-04-22T09:22:08.069Z,86507.52
2023-04-22T09:23:08.209Z,89538.55
2023-04-22T09:24:08.358Z,87408.64
2023-04-22T09:25:08.480Z,85688.32
2023-04-22T09:26:08.618Z,91504.64
2023-04-22T09:27:08.768Z,91013.12
2023-04-22T09:28:08.918Z,91095.04
2023-04-22T09:29:09.082Z,90112
2023-04-22T09:30:09.226Z,90767.36
2023-04-22T09:31:09.387Z,93552.64
2023-04-22T09:32:09.577Z,90767.36
2023-04-22T09:33:09.691Z,91176.96
2023-04-22T09:34:09.821Z,90112
2023-04-22T09:35:09.981Z,85606.4
2023-04-22T09:36:10.140Z,83517.44
2023-04-22T09:37:10.286Z,82616.32
2023-04-22T09:38:10.451Z,85524.48
2023-04-22T09:39:10.580Z,85278.72
2023-04-22T09:40:10.737Z,85032.96
2023-04-22T09:41:10.842Z,85524.48
2023-04-22T09:42:10.941Z,87982.08
2023-04-22T09:43:11.089Z,88637.44
2023-04-22T09:44:11.265Z,86917.12
2023-04-22T09:45:11.396Z,88473.6
2023-04-22T09:46:11.575Z,89538.55
2023-04-22T09:47:11.706Z,89047.04
2023-04-22T09:48:11.904Z,89866.23
2023-04-22T09:49:11.997Z,90193.92
2023-04-22T09:50:12.158Z,88719.36
2023-04-22T09:51:12.299Z,87244.8
2023-04-22T09:52:12.455Z,87572.48
2023-04-22T09:53:12.620Z,87490.55
2023-04-22T09:54:12.768Z,86261.76
2023-04-22T09:55:12.913Z,87572.48
2023-04-22T09:56:13.069Z,89374.72
2023-04-22T09:57:13.234Z,86016
2023-04-22T09:58:13.378Z,84541.44
2023-04-22T09:59:13.522Z,84377.6
2023-04-22T10:00:13.684Z,82739.2
2023-04-22T10:01:13.844Z,85032.96
2023-04-22T10:02:14.013Z,82493.44
2023-04-22T10:03:14.216Z,85688.32
2023-04-22T10:04:14.266Z,86507.52
2023-04-22T10:05:14.320Z,86671.36
2023-04-22T10:06:14.472Z,85114.88
2023-04-22T10:07:14.579Z,81182.72
2023-04-22T10:08:14.781Z,78684.16
2023-04-22T10:09:14.883Z,81838.08
2023-04-22T10:10:15.045Z,83148.8
2023-04-22T10:11:15.185Z,86835.2
2023-04-22T10:12:16.663Z,89047.04
2023-04-22T10:13:15.508Z,88309.76
2023-04-22T10:14:15.638Z,87162.88
2023-04-22T10:15:15.762Z,88227.84
2023-04-22T10:16:15.917Z,88227.84
2023-04-22T10:17:16.050Z,89292.8
2023-04-22T10:18:16.199Z,92405.76
2023-04-22T10:19:16.609Z,93634.55
2023-04-22T10:20:16.458Z,94781.44
2023-04-22T10:21:16.575Z,95518.72
2023-04-22T10:22:16.751Z,95191.04
2023-04-22T10:23:16.880Z,94126.08
2023-04-22T10:24:17.029Z,93143.04
2023-04-22T10:25:17.182Z,96911.36
2023-04-22T10:26:17.303Z,94699.52
2023-04-22T10:27:17.479Z,95354.88
2023-04-22T10:28:17.563Z,95354.88
2023-04-22T10:29:17.716Z,95764.48
2023-04-22T10:30:17.863Z,96747.52
2023-04-22T10:31:18.045Z,96174.08
2023-04-22T10:32:18.147Z,94781.44
2023-04-22T10:33:18.389Z,93470.72
2023-04-22T10:34:18.430Z,94289.91
2023-04-22T10:35:18.522Z,95191.04
2023-04-22T10:36:18.648Z,95928.32
2023-04-22T10:37:18.748Z,94699.52
2023-04-22T10:38:18.892Z,94453.76
2023-04-22T10:39:19.023Z,94289.91
2023-04-22T10:40:19.154Z,95354.88
2023-04-22T10:41:19.353Z,93962.23
2023-04-22T10:42:19.500Z,96010.23
2023-04-22T10:43:19.628Z,95928.32
2023-04-22T10:44:19.779Z,95764.48
2023-04-22T10:45:19.887Z,98140.16
2023-04-22T10:46:20.059Z,96092.16
2023-04-22T10:47:20.097Z,94126.08
2023-04-22T10:48:20.251Z,94289.91
2023-04-22T10:49:20.392Z,97320.96
2023-04-22T10:50:20.504Z,99205.12
2023-04-22T10:51:20.660Z,97402.88
2023-04-22T10:52:20.792Z,96010.23
2023-04-22T10:53:20.979Z,98631.68
2023-04-22T10:54:21.109Z,99123.2
2023-04-22T10:55:21.255Z,98713.6
2023-04-22T10:56:21.402Z,99368.96
2023-04-22T10:57:21.565Z,100024.32
2023-04-22T10:58:21.766Z,100843.52
2023-04-22T10:59:21.859Z,99287.04
2023-04-22T11:00:22.015Z,99696.64
2023-04-22T11:01:22.219Z,97894.4
2023-04-22T11:02:22.289Z,97320.96
2023-04-22T11:03:22.724Z,100270.08
2023-04-22T11:04:22.683Z,103219.2
2023-04-22T11:05:24.720Z,104857.59
2023-04-22T11:06:22.876Z,105267.2
2023-04-22T11:08:23.171Z,105267.2
2023-04-22T11:09:23.328Z,105922.55
2023-04-22T11:10:23.435Z,104366.08
2023-04-22T11:11:23.597Z,101335.04
2023-04-22T11:12:23.696Z,101826.55
2023-04-22T11:13:23.830Z,99778.55
2023-04-22T11:14:23.948Z,98140.16
2023-04-22T11:15:24.083Z,96747.52
2023-04-22T11:16:24.272Z,97566.72
2023-04-22T11:17:24.420Z,100515.84
2023-04-22T11:18:24.563Z,101908.48
2023-04-22T11:19:24.692Z,103628.8
2023-04-22T11:20:24.793Z,104038.4
2023-04-22T11:21:24.949Z,103710.72
2023-04-22T11:22:25.106Z,101580.8
2023-04-22T11:23:25.278Z,102400
2023-04-22T11:24:25.400Z,103792.64
2023-04-22T11:25:25.550Z,104120.32
2023-04-22T11:26:25.698Z,103956.48
2023-04-22T11:27:25.848Z,103546.88
2023-04-22T11:28:26.017Z,103219.2
2023-04-22T11:29:26.180Z,103710.72
2023-04-22T11:30:26.330Z,103874.55
2023-04-22T11:31:26.492Z,96501.76
2023-04-22T11:32:26.575Z,101335.04
2023-04-22T11:33:26.712Z,109035.52
2023-04-22T11:34:26.829Z,107233.28
2023-04-22T11:35:26.990Z,106987.52
2023-04-22T11:36:27.084Z,105021.44
2023-04-22T11:37:27.172Z,101826.55
2023-04-22T11:38:27.336Z,107560.96
2023-04-22T11:39:27.478Z,107479.04
2023-04-22T11:40:29.782Z,106168.32
2023-04-22T11:41:27.737Z,102563.84
2023-04-22T11:42:27.910Z,98058.23
2023-04-22T11:43:28.034Z,91422.72
2023-04-22T11:44:28.174Z,86261.76
2023-04-22T11:45:28.467Z,95354.88
2023-04-22T11:46:28.618Z,98304
2023-04-22T11:47:28.601Z,97320.96
2023-04-22T11:48:28.750Z,93143.04
2023-04-22T11:49:28.879Z,92897.28
2023-04-22T11:50:28.989Z,90603.52
2023-04-22T11:51:29.153Z,97894.4
2023-04-22T11:52:29.223Z,102318.08
2023-04-22T11:53:29.322Z,102236.16
2023-04-22T11:54:29.541Z,98877.44
2023-04-22T11:55:29.579Z,81838.08
2023-04-22T11:56:29.783Z,74506.24
2023-04-22T11:57:30.547Z,75448.32
2023-04-22T11:58:30.070Z,77619.2
2023-04-22T11:59:30.204Z,88145.92
2023-04-22T12:00:30.359Z,99123.2
2023-04-22T12:01:30.463Z,100188.16
2023-04-22T12:02:30.793Z,98959.36
2023-04-22T12:03:31.143Z,84623.36
2023-04-22T12:04:30.914Z,74383.36
2023-04-22T12:05:31.147Z,90767.36
2023-04-22T12:06:31.213Z,80527.36
2023-04-22T12:07:31.315Z,76431.36
2023-04-22T12:08:31.467Z,81797.12
2023-04-22T12:09:31.615Z,92241.91
2023-04-22T12:10:31.805Z,91914.23
2023-04-22T12:11:31.880Z,83599.36
2023-04-22T12:12:32.033Z,92979.2
2023-04-22T12:13:32.186Z,102563.84
2023-04-22T12:14:32.333Z,107151.36
2023-04-22T12:15:32.476Z,98304
2023-04-22T12:16:32.649Z,57794.56
2023-04-22T12:17:32.805Z,51527.68
2023-04-22T12:18:32.946Z,63733.76
2023-04-22T12:19:33.076Z,58408.96
2023-04-22T12:20:33.255Z,63365.12
2023-04-22T12:21:33.378Z,88309.76
2023-04-22T12:22:33.496Z,77946.88
2023-04-22T12:23:33.636Z,85114.88